This is the latest recevied weather packets stored in our database for station/object KG0HG. If no packets are shown the sender has not sent any weather packets the latest 10 day(s).
| Time | Temp. | Humidity | Pressure | Rain* | Wind** | Luminosity | Snow |
|---|---|---|---|---|---|---|---|
| 1777667027 | 17.22° C | 36% | 1017.6 hPa | 0 mm | - | 68 W/m² | - |
| 1777666723 | 17.78° C | 33% | 1017.6 hPa | 0 mm | - | 64 W/m² | - |
| 1777666420 | 17.22° C | 35% | 1017.6 hPa | 0 mm | - | 213 W/m² | - |
| 1777666117 | 17.22° C | 35% | 1017.7 hPa | 0 mm | - | 163 W/m² | - |
| 1777665814 | 16.11° C | 36% | 1017.9 hPa | 0 mm | - | 453 W/m² | - |
| 1777665512 | 17.22° C | 36% | 1017.8 hPa | 0 mm | - | 102 W/m² | - |
| 1777665207 | 16.67° C | 37% | 1018.1 hPa | 0 mm | - | 168 W/m² | - |
| 1777664904 | 16.67° C | 37% | 1018.2 hPa | 0 mm | - | 108 W/m² | - |
| 1777664600 | 16.67° C | 36% | 1018.1 hPa | 0 mm | - | 82 W/m² | - |
| 1777664296 | 17.22° C | 36% | 1018.2 hPa | 0 mm | - | 127 W/m² | - |
| 1777663995 | 17.22° C | 34% | 1018.2 hPa | 0 mm | - | 166 W/m² | - |
| 1777663692 | 17.22° C | 34% | 1018.1 hPa | 0 mm | - | 203 W/m² | - |
| 1777663389 | 16.67° C | 36% | 1018.4 hPa | 0 mm | - | 194 W/m² | - |
| 1777663086 | 16.67° C | 35% | 1018.2 hPa | 0 mm | - | 238 W/m² | - |
| 1777662783 | 16.67° C | 35% | 1018.3 hPa | 0 mm | - | 154 W/m² | - |
| 1777662480 | 16.67° C | 35% | 1018 hPa | 0 mm | - | 205 W/m² | - |
| 1777662175 | 16.67° C | 35% | 1018.3 hPa | 0 mm | - | 123 W/m² | - |
| 1777661871 | 16.67° C | 35% | 1018.4 hPa | 0 mm | - | 157 W/m² | - |
| 1777661567 | 17.22° C | 35% | 1018.4 hPa | 0 mm | - | 150 W/m² | - |
| 1777661263 | 17.22° C | 35% | 1018.2 hPa | 0 mm | - | 245 W/m² | - |
| 1777660959 | 16.67° C | 36% | 1018.3 hPa | 0 mm | - | 779 W/m² | - |
| 1777660655 | 16.11° C | 35% | 1018.4 hPa | 0 mm | - | 508 W/m² | - |
| 1777660352 | 16.11° C | 35% | 1018.4 hPa | 0 mm | - | 485 W/m² | - |
| 1777660048 | 16.11° C | 34% | 1018.6 hPa | 0 mm | - | 642 W/m² | - |
| 1777659746 | 16.11° C | 34% | 1018.3 hPa | 0 mm | - | 757 W/m² | - |
* Rain latest hour (hover to see other rain measurements)
** Current wind speed in m/s (hover to see current wind gust speed)